Time;durP1;ratioP1;P1;durP2;ratioP2;P2;SDS_P1;SDS_P2;PMS_P1;PMS_P2;Temp;Humidity;BMP_temperature;BMP_pressure;BME280_temperature;BME280_humidity;BME280_pressure;Samples;Min_cycle;Max_cycle;Signal;HPM_P1;HPM_P2
2021/11/09 00:00:03;;;;;;;6.53;4.97;;;22.00;54.80;;;;;;5038111;28;20500;-80
2021/11/09 00:02:31;;;;;;;5.00;4.00;;;22.00;54.80;;;;;;5058293;28;20383;-79
2021/11/09 00:04:58;;;;;;;5.40;4.23;;;22.00;54.80;;;;;;5056936;28;20395;-79
2021/11/09 00:07:29;;;;;;;4.80;4.00;;;22.00;54.80;;;;;;5040758;28;20423;-79
2021/11/09 00:09:59;;;;;;;4.17;3.60;;;22.00;54.80;;;;;;5058278;28;20397;-79
2021/11/09 00:12:42;;;;;;;4.60;4.20;;;22.00;54.80;;;;;;5057043;28;20783;-79
2021/11/09 00:15:12;;;;;;;7.47;4.53;;;22.00;54.80;;;;;;5040531;28;20418;-79
2021/11/09 00:17:38;;;;;;;6.10;4.17;;;22.00;54.80;;;;;;5057459;28;20441;-78
2021/11/09 00:20:10;;;;;;;4.43;4.00;;;22.00;54.80;;;;;;5055662;28;20453;-79
2021/11/09 00:22:39;;;;;;;4.60;3.50;;;22.00;54.80;;;;;;5039160;28;20481;-79
2021/11/09 00:25:06;;;;;;;4.70;3.13;;;22.00;55.40;;;;;;5056935;28;20391;-79
2021/11/09 00:27:35;;;;;;;3.50;3.00;;;22.00;54.80;;;;;;5039365;28;20491;-79
2021/11/09 00:30:01;;;;;;;5.90;3.40;;;21.90;54.80;;;;;;5055215;28;20477;-79
2021/11/09 00:32:27;;;;;;;4.70;4.23;;;21.90;54.80;;;;;;5056378;28;20426;-79
2021/11/09 00:34:55;;;;;;;5.90;3.60;;;21.90;54.80;;;;;;5038624;28;20418;-79
2021/11/09 00:37:21;;;;;;;5.60;3.97;;;21.90;54.80;;;;;;5055922;28;20485;-79
2021/11/09 00:39:52;;;;;;;6.57;3.93;;;21.90;54.80;;;;;;5055233;28;20480;-78
2021/11/09 00:42:20;;;;;;;4.10;3.47;;;21.90;54.80;;;;;;5056448;28;20171;-78
2021/11/09 00:44:48;;;;;;;3.77;3.13;;;21.90;54.80;;;;;;5056294;28;20437;-79
2021/11/09 00:47:16;;;;;;;4.27;3.27;;;21.90;54.80;;;;;;5056389;28;20413;-80
2021/11/09 00:49:43;;;;;;;4.73;3.97;;;21.90;54.80;;;;;;5055765;28;20425;-80
2021/11/09 00:52:11;;;;;;;5.77;4.07;;;21.90;54.80;;;;;;5055807;28;20421;-81
2021/11/09 00:54:37;;;;;;;5.00;3.50;;;21.90;54.80;;;;;;5056520;28;20426;-80
2021/11/09 00:57:08;;;;;;;4.47;3.40;;;21.90;54.80;;;;;;5056434;28;20383;-80
2021/11/09 00:59:37;;;;;;;3.80;3.10;;;21.90;54.80;;;;;;5039823;28;20229;-80
2021/11/09 01:02:04;;;;;;;5.00;4.50;;;21.90;54.80;;;;;;5057171;28;20417;-80
2021/11/09 01:04:32;;;;;;;4.03;3.50;;;21.90;54.80;;;;;;5056417;28;20390;-79
2021/11/09 01:06:58;;;;;;;5.47;3.73;;;21.90;54.80;;;;;;5056744;28;20434;-79
2021/11/09 01:09:27;;;;;;;5.07;3.57;;;21.90;54.90;;;;;;5040290;28;20423;-78
2021/11/09 01:11:58;;;;;;;4.30;3.73;;;21.90;54.90;;;;;;5036919;28;20235;-80
2021/11/09 01:14:25;;;;;;;4.17;3.73;;;21.90;54.90;;;;;;5056091;28;20486;-80
2021/11/09 01:16:52;;;;;;;3.27;2.97;;;21.90;54.90;;;;;;5039318;28;20433;-80
2021/11/09 01:19:19;;;;;;;6.27;4.30;;;21.90;54.90;;;;;;5037803;28;20478;-80
2021/11/09 01:21:45;;;;;;;4.07;3.43;;;21.90;54.90;;;;;;5056210;28;20404;-80
2021/11/09 01:24:17;;;;;;;4.13;3.47;;;21.90;54.90;;;;;;5056609;28;20411;-80
2021/11/09 01:26:46;;;;;;;4.07;3.30;;;21.90;54.90;;;;;;5037704;28;20418;-80
2021/11/09 01:29:15;;;;;;;5.07;3.63;;;21.90;54.90;;;;;;5054990;28;20454;-80
2021/11/09 01:31:46;;;;;;;4.20;3.23;;;21.90;54.90;;;;;;5055020;28;20470;-80
2021/11/09 01:34:12;;;;;;;4.30;2.90;;;21.90;54.90;;;;;;5036669;28;20446;-80
2021/11/09 01:36:38;;;;;;;5.17;3.67;;;21.80;54.80;;;;;;5054423;28;20422;-80
2021/11/09 01:39:07;;;;;;;4.73;3.20;;;21.90;54.90;;;;;;5050246;28;20211;-79
2021/11/09 01:41:33;;;;;;;3.60;3.30;;;21.90;54.90;;;;;;5032992;28;20445;-79
2021/11/09 01:44:03;;;;;;;3.53;3.20;;;21.80;54.80;;;;;;5049681;28;20491;-79
2021/11/09 01:46:47;;;;;;;4.03;3.20;;;21.90;54.90;;;;;;5050830;28;20403;-79
2021/11/09 01:49:16;;;;;;;4.50;3.73;;;21.90;54.90;;;;;;5032791;28;20423;-79
2021/11/09 01:51:42;;;;;;;4.13;3.10;;;21.80;54.80;;;;;;5050573;28;20474;-79
2021/11/09 01:54:08;;;;;;;4.23;3.23;;;21.80;54.80;;;;;;5050893;28;20403;-79
2021/11/09 01:56:37;;;;;;;3.40;2.70;;;21.80;54.90;;;;;;5050233;28;20415;-79
2021/11/09 01:59:09;;;;;;;5.00;3.57;;;21.80;54.90;;;;;;5050915;28;20438;-78
2021/11/09 02:01:41;;;;;;;4.23;3.17;;;21.80;54.90;;;;;;5050910;28;20473;-78
2021/11/09 02:04:10;;;;;;;3.40;2.80;;;21.80;54.90;;;;;;5049870;28;20470;-78
2021/11/09 02:06:42;;;;;;;6.07;3.40;;;21.80;54.90;;;;;;5051343;28;20399;-78
2021/11/09 02:09:13;;;;;;;5.57;4.03;;;21.80;54.90;;;;;;5051582;28;20402;-78
2021/11/09 02:11:39;;;;;;;5.90;3.20;;;21.80;54.90;;;;;;5034654;28;20410;-79
2021/11/09 02:14:05;;;;;;;3.47;2.90;;;21.80;54.90;;;;;;5051309;28;20970;-79
2021/11/09 02:16:37;;;;;;;3.70;3.33;;;21.80;54.90;;;;;;5051888;28;20409;-79
2021/11/09 02:19:05;;;;;;;5.67;3.20;;;21.80;54.90;;;;;;5033419;28;20410;-78
2021/11/09 02:21:32;;;;;;;3.43;3.13;;;21.80;54.90;;;;;;5050626;28;20510;-79
2021/11/09 02:23:58;;;;;;;3.73;2.90;;;21.80;54.90;;;;;;5051692;28;20433;-80
2021/11/09 02:26:27;;;;;;;4.13;3.63;;;21.80;54.90;;;;;;5034154;28;20422;-80
2021/11/09 02:28:57;;;;;;;3.50;2.90;;;21.80;54.90;;;;;;5051262;28;20407;-80
2021/11/09 02:31:28;;;;;;;4.23;3.07;;;21.80;55.00;;;;;;5050268;28;20410;-80
2021/11/09 02:33:54;;;;;;;3.90;3.10;;;21.80;54.90;;;;;;5031825;28;20434;-79
2021/11/09 02:36:20;;;;;;;3.00;2.60;;;21.80;55.00;;;;;;5032830;28;20422;-80
2021/11/09 02:38:47;;;;;;;3.20;2.90;;;21.80;54.90;;;;;;5049752;28;20413;-80
2021/11/09 02:41:13;;;;;;;3.63;2.93;;;21.80;55.00;;;;;;5015738;28;20418;-80
2021/11/09 02:43:39;;;;;;;3.67;3.37;;;21.80;54.90;;;;;;5032116;28;20411;-80
2021/11/09 02:48:46;;;;;;;3.43;2.93;;;21.80;54.90;;;;;;5049358;28;20176;-80
2021/11/09 02:51:17;;;;;;;3.13;2.83;;;21.80;54.90;;;;;;5032353;28;20414;-80
2021/11/09 02:57:56;;;;;;;3.37;3.00;;;21.80;54.90;;;;;;5049633;28;20386;-79
2021/11/09 03:00:32;;;;;;;3.53;2.77;;;21.80;55.00;;;;;;5031896;28;20468;-80
2021/11/09 03:03:12;;;;;;;3.27;2.90;;;21.70;55.00;;;;;;5047987;28;20421;-79
2021/11/09 03:14:10;;;;;;;3.37;2.90;;;21.70;55.00;;;;;;5050506;28;20238;-79
2021/11/09 03:16:39;;;;;;;3.70;2.83;;;21.70;55.00;;;;;;5050680;28;20900;-79
2021/11/09 03:19:24;;;;;;;3.50;2.67;;;21.70;55.00;;;;;;5047859;28;20410;-78
2021/11/09 03:44:35;;;;;;;3.87;3.07;;;21.70;55.10;;;;;;5048481;28;20397;-78
2021/11/09 03:47:06;;;;;;;3.53;2.67;;;21.70;55.10;;;;;;5047626;28;20391;-79
2021/11/09 03:49:35;;;;;;;3.23;2.70;;;21.70;55.10;;;;;;5029838;28;20418;-79
2021/11/09 03:52:06;;;;;;;3.00;2.60;;;21.70;55.10;;;;;;5030793;28;20490;-79
2021/11/09 03:54:32;;;;;;;3.50;2.83;;;21.70;55.10;;;;;;5047988;28;20413;-78
2021/11/09 04:05:43;;;;;;;3.03;2.70;;;21.70;55.00;;;;;;5049535;28;20386;-79
2021/11/09 04:08:33;;;;;;;3.67;2.70;;;21.70;55.10;;;;;;5032993;28;20438;-80
2021/11/09 04:19:10;;;;;;;3.83;2.80;;;21.70;55.10;;;;;;5048544;28;20470;-78
2021/11/09 04:49:01;;;;;;;3.53;2.47;;;21.60;55.10;;;;;;5050579;28;20423;-80
2021/11/09 05:10:31;;;;;;;3.23;2.50;;;21.60;55.20;;;;;;5051241;28;20401;-80
2021/11/09 05:12:57;;;;;;;3.23;2.77;;;21.60;55.20;;;;;;5034514;28;20469;-79
2021/11/09 05:15:23;;;;;;;2.90;2.60;;;21.60;55.20;;;;;;5050941;28;20438;-80
2021/11/09 05:17:48;;;;;;;2.90;2.60;;;21.60;55.30;;;;;;5050540;28;20425;-79
2021/11/09 05:20:15;;;;;;;2.10;1.90;;;21.60;55.20;;;;;;5050352;28;20573;-80
2021/11/09 05:22:45;;;;;;;2.80;2.30;;;21.60;55.20;;;;;;5049812;28;20186;-80
2021/11/09 05:25:11;;;;;;;3.83;2.70;;;21.60;55.20;;;;;;5049953;28;20434;-79
2021/11/09 05:27:37;;;;;;;3.83;2.63;;;21.60;55.20;;;;;;5048404;28;20454;-79
2021/11/09 05:30:21;;;;;;;3.97;3.10;;;21.60;55.10;;;;;;5049768;28;20172;-80
2021/11/09 05:32:49;;;;;;;2.83;2.53;;;21.60;55.10;;;;;;5048736;28;20411;-80
2021/11/09 05:35:15;;;;;;;2.80;2.33;;;21.60;55.10;;;;;;5048491;28;20446;-79
2021/11/09 05:37:45;;;;;;;3.47;2.50;;;21.60;55.10;;;;;;5048572;28;20462;-79
2021/11/09 05:40:11;;;;;;;3.43;2.50;;;21.60;55.10;;;;;;5048728;28;20199;-79
2021/11/09 05:42:38;;;;;;;3.30;2.23;;;21.60;55.10;;;;;;5048375;28;20407;-78
2021/11/09 05:45:09;;;;;;;3.80;2.60;;;21.60;55.10;;;;;;5047702;28;20768;-77
2021/11/09 05:47:35;;;;;;;3.03;2.60;;;21.60;55.10;;;;;;5048725;28;20482;-78
2021/11/09 05:50:05;;;;;;;3.10;2.53;;;21.60;55.10;;;;;;5048614;28;20426;-78
2021/11/09 05:52:31;;;;;;;3.47;2.77;;;21.60;55.00;;;;;;5049472;28;20421;-79
2021/11/09 05:54:57;;;;;;;3.30;2.77;;;21.60;55.00;;;;;;5048876;28;20411;-79
2021/11/09 05:57:23;;;;;;;2.90;2.50;;;21.60;55.00;;;;;;5047592;28;20422;-78
2021/11/09 05:59:48;;;;;;;3.00;2.37;;;21.60;55.00;;;;;;5048601;28;20211;-77
2021/11/09 06:02:14;;;;;;;2.80;2.23;;;21.60;55.00;;;;;;5048905;28;20191;-78
2021/11/09 06:08:02;;;;;;;3.00;2.70;;;21.70;55.00;;;;;;5051148;28;20379;-79
2021/11/09 06:13:50;;;;;;;3.83;2.67;;;21.70;54.90;;;;;;5053163;28;20159;-80
2021/11/09 06:16:16;;;;;;;5.17;2.27;;;21.60;54.80;;;;;;5049363;28;20936;-80
2021/11/09 06:18:42;;;;;;;2.97;2.50;;;21.60;54.80;;;;;;5051217;28;20172;-80
2021/11/09 06:24:31;;;;;;;4.33;2.53;;;21.70;54.80;;;;;;5049022;28;20413;-80
2021/11/09 06:26:58;;;;;;;4.70;2.87;;;21.60;54.80;;;;;;5015004;28;20422;-80
2021/11/09 06:29:26;;;;;;;3.00;2.43;;;21.70;54.90;;;;;;5048562;28;20419;-79
2021/11/09 06:31:59;;;;;;;2.67;2.30;;;21.70;54.90;;;;;;5046161;28;20493;-80
2021/11/09 06:34:26;;;;;;;3.23;2.90;;;21.70;54.90;;;;;;5048200;28;20411;-80
2021/11/09 06:36:52;;;;;;;3.43;2.37;;;21.70;54.90;;;;;;5012380;28;20431;-80
2021/11/09 06:39:17;;;;;;;3.13;2.70;;;21.70;54.90;;;;;;5048503;28;20538;-80
2021/11/09 06:41:44;;;;;;;3.73;2.90;;;21.70;54.80;;;;;;5030686;28;20239;-80
2021/11/09 06:44:10;;;;;;;3.80;2.70;;;21.70;54.80;;;;;;5048246;28;20698;-80
2021/11/09 06:46:35;;;;;;;3.50;2.87;;;21.70;54.80;;;;;;5048302;28;20423;-80
2021/11/09 06:49:01;;;;;;;3.67;2.67;;;21.70;54.80;;;;;;5030181;28;20437;-80
2021/11/09 06:51:27;;;;;;;2.43;2.23;;;21.70;54.80;;;;;;5048909;28;20168;-80
2021/11/09 06:53:52;;;;;;;3.70;2.93;;;21.70;54.80;;;;;;5029988;28;20185;-83
2021/11/09 06:56:18;;;;;;;3.03;2.73;;;21.70;54.80;;;;;;5049884;28;20172;-79
2021/11/09 07:05:29;;;;;;;3.83;3.03;;;21.70;54.80;;;;;;5047506;28;20939;-80
2021/11/09 07:07:54;;;;;;;3.40;2.67;;;21.60;54.80;;;;;;5048539;28;20407;-80
2021/11/09 07:10:20;;;;;;;4.60;3.23;;;21.60;54.80;;;;;;5049224;28;20429;-80
2021/11/09 07:12:46;;;;;;;2.50;2.30;;;21.60;54.70;;;;;;5049983;28;20555;-80
2021/11/09 07:15:13;;;;;;;4.97;3.17;;;21.70;54.70;;;;;;5029058;28;20607;-80
2021/11/09 07:17:44;;;;;;;3.93;3.20;;;21.70;54.70;;;;;;5029426;28;20482;-80
2021/11/09 07:20:13;;;;;;;4.53;3.30;;;21.70;54.70;;;;;;5044390;28;20446;-80
2021/11/09 07:22:39;;;;;;;3.10;2.70;;;21.70;54.60;;;;;;5047646;28;20422;-79
2021/11/09 07:28:27;;;;;;;3.60;3.30;;;21.70;54.60;;;;;;5042266;28;20171;-80
2021/11/09 07:31:01;;;;;;;3.73;3.40;;;21.70;54.60;;;;;;5047520;28;20426;-80
2021/11/09 07:33:28;;;;;;;3.53;2.90;;;21.70;54.60;;;;;;5030355;28;20425;-80
2021/11/09 07:35:53;;;;;;;3.83;3.43;;;21.70;54.60;;;;;;5047500;28;20428;-80
2021/11/09 07:38:19;;;;;;;3.60;3.20;;;21.70;54.60;;;;;;5048064;28;20430;-79
2021/11/09 07:40:46;;;;;;;3.60;3.00;;;21.70;54.50;;;;;;5026859;28;20596;-79
2021/11/09 07:43:12;;;;;;;3.27;2.87;;;21.70;54.50;;;;;;5029962;28;20187;-79
2021/11/09 07:45:39;;;;;;;3.23;2.90;;;21.70;54.50;;;;;;5027529;28;20435;-79
2021/11/09 07:48:06;;;;;;;3.77;3.10;;;21.70;54.50;;;;;;5029438;28;21087;-79
2021/11/09 07:50:32;;;;;;;3.60;2.90;;;21.80;54.50;;;;;;5048194;28;20418;-80
2021/11/09 07:52:59;;;;;;;3.33;3.00;;;21.80;54.50;;;;;;5029379;28;20505;-80
2021/11/09 07:55:27;;;;;;;3.03;2.40;;;21.80;54.40;;;;;;5048166;28;20905;-79
2021/11/09 07:57:56;;;;;;;3.60;3.30;;;21.80;54.40;;;;;;5047458;28;20414;-79
2021/11/09 08:00:35;;;;;;;4.10;2.77;;;21.80;54.40;;;;;;5048603;28;20533;-80
2021/11/09 08:06:21;;;;;;;3.33;2.90;;;21.80;54.40;;;;;;5007485;28;20430;-80
2021/11/09 08:08:56;;;;;;;3.93;3.00;;;21.80;54.40;;;;;;5047461;28;20422;-79
2021/11/09 08:11:22;;;;;;;3.33;2.57;;;21.80;54.40;;;;;;5043319;28;20425;-79
2021/11/09 08:13:48;;;;;;;3.23;2.60;;;21.80;54.40;;;;;;5047873;28;20808;-79
2021/11/09 08:16:15;;;;;;;2.73;2.50;;;21.80;54.40;;;;;;5029709;28;21059;-79
2021/11/09 08:18:41;;;;;;;2.80;2.53;;;21.80;54.40;;;;;;5048663;28;20235;-78
2021/11/09 08:21:07;;;;;;;2.97;2.37;;;21.80;54.50;;;;;;5031916;28;20461;-80
2021/11/09 08:23:36;;;;;;;4.50;3.03;;;21.80;54.50;;;;;;5033513;28;20222;-80
2021/11/09 08:26:03;;;;;;;3.17;2.57;;;21.80;54.50;;;;;;5032485;28;20975;-80
2021/11/09 08:28:29;;;;;;;2.50;2.10;;;21.80;54.50;;;;;;5051004;28;20507;-80
2021/11/09 08:31:02;;;;;;;4.10;3.13;;;21.80;54.50;;;;;;5049751;28;20414;-80
2021/11/09 08:33:29;;;;;;;3.07;2.60;;;21.80;54.50;;;;;;5033254;28;20171;-80
2021/11/09 08:35:57;;;;;;;2.53;2.30;;;21.80;54.60;;;;;;5050353;28;20421;-80
2021/11/09 08:38:23;;;;;;;2.70;2.50;;;21.80;54.60;;;;;;5032804;28;20496;-80
2021/11/09 08:40:51;;;;;;;2.63;2.07;;;21.80;54.60;;;;;;5050663;28;20457;-80
2021/11/09 08:43:19;;;;;;;2.60;2.20;;;21.80;54.60;;;;;;5026815;28;20414;-80
2021/11/09 08:45:54;;;;;;;3.47;2.30;;;21.80;54.60;;;;;;5050271;28;20417;-80
2021/11/09 08:48:22;;;;;;;3.03;2.63;;;21.80;54.50;;;;;;5043975;28;20393;-80
2021/11/09 08:50:51;;;;;;;2.53;2.33;;;21.80;54.50;;;;;;5051024;28;20422;-79
2021/11/09 08:53:23;;;;;;;2.60;2.40;;;21.80;54.50;;;;;;5033090;28;20430;-80
2021/11/09 09:01:41;;;;;;;2.20;2.00;;;21.80;54.50;;;;;;5050526;28;20986;-80
2021/11/09 09:04:16;;;;;;;2.73;2.40;;;21.80;54.50;;;;;;5032167;28;20438;-79
2021/11/09 09:06:48;;;;;;;2.70;2.27;;;21.80;54.50;;;;;;5047981;28;20799;-80
2021/11/09 09:09:14;;;;;;;4.07;2.73;;;21.80;54.50;;;;;;5052098;28;20474;-79
2021/11/09 09:11:41;;;;;;;2.80;2.30;;;21.80;54.50;;;;;;5053600;28;20445;-80
2021/11/09 09:14:07;;;;;;;3.80;2.43;;;21.80;54.50;;;;;;5034542;28;20430;-80
2021/11/09 09:16:34;;;;;;;2.67;2.47;;;21.80;54.50;;;;;;5026181;28;20424;-80
2021/11/09 09:19:03;;;;;;;2.60;2.17;;;21.80;54.50;;;;;;5032671;28;20419;-80
2021/11/09 09:24:57;;;;;;;;;;;;;;;;;;;;;
2021/11/09 09:29:46;;;;;;;2.83;2.47;;;21.80;54.40;;;;;;5045763;28;20429;-80
2021/11/09 09:57:08;;;;;;;4.57;2.27;;;21.80;54.50;;;;;;5050705;28;20554;-79
2021/11/09 09:59:36;;;;;;;2.37;2.13;;;21.80;54.50;;;;;;5032130;28;20454;-79
2021/11/09 10:02:10;;;;;;;2.00;1.80;;;21.80;54.50;;;;;;5052036;28;20413;-79
2021/11/09 10:04:42;;;;;;;3.10;2.10;;;21.80;54.50;;;;;;5033817;28;20795;-78
2021/11/09 10:07:08;;;;;;;3.37;2.33;;;21.80;54.50;;;;;;5028787;28;20418;-80
2021/11/09 10:09:49;;;;;;;2.10;1.90;;;21.80;54.60;;;;;;5050915;28;20477;-80
2021/11/09 10:12:21;;;;;;;2.60;2.20;;;21.80;54.50;;;;;;5029664;28;20412;-80
2021/11/09 10:14:49;;;;;;;2.13;1.93;;;21.80;54.50;;;;;;5044874;28;20414;-80
2021/11/09 10:17:18;;;;;;;2.53;2.13;;;21.80;54.50;;;;;;5051454;28;20419;-79
2021/11/09 10:19:44;;;;;;;2.33;1.87;;;21.80;54.50;;;;;;5049036;28;20454;-79
2021/11/09 10:22:27;;;;;;;2.13;1.80;;;21.80;54.50;;;;;;5031009;28;20419;-80
2021/11/09 10:25:04;;;;;;;2.63;1.97;;;21.90;54.50;;;;;;5041341;28;20167;-78
2021/11/09 10:27:32;;;;;;;2.47;2.00;;;21.80;54.40;;;;;;5030340;28;20437;-80
2021/11/09 10:30:04;;;;;;;2.50;2.30;;;21.80;54.40;;;;;;5014179;28;20526;-80
2021/11/09 10:32:31;;;;;;;2.47;2.10;;;21.90;54.50;;;;;;5027755;28;20442;-80
2021/11/09 10:35:00;;;;;;;2.17;1.97;;;21.80;54.40;;;;;;5048810;28;20486;-80
2021/11/09 10:37:31;;;;;;;2.10;1.90;;;21.90;54.50;;;;;;5048517;28;20433;-80
2021/11/09 10:40:06;;;;;;;2.50;2.10;;;21.90;54.50;;;;;;5029070;28;20466;-80
2021/11/09 10:42:39;;;;;;;2.20;2.00;;;21.90;54.50;;;;;;5048471;28;20942;-80
2021/11/09 10:45:11;;;;;;;2.30;1.87;;;21.90;54.40;;;;;;5031748;28;20407;-78
2021/11/09 10:47:40;;;;;;;3.17;1.87;;;21.90;54.40;;;;;;5049396;28;20406;-78
2021/11/09 10:50:17;;;;;;;2.50;1.60;;;21.90;54.40;;;;;;5031943;28;20423;-80
2021/11/09 10:52:43;;;;;;;2.07;1.83;;;21.90;54.40;;;;;;5028664;28;20426;-79
2021/11/09 10:55:31;;;;;;;2.00;1.80;;;21.90;54.40;;;;;;5048436;28;20433;-79
2021/11/09 11:03:29;;;;;;;2.50;2.10;;;21.90;54.40;;;;;;5047385;28;20413;-80
2021/11/09 11:06:16;;;;;;;2.00;1.70;;;21.90;54.40;;;;;;5031547;28;20414;-80
2021/11/09 11:08:44;;;;;;;1.97;1.80;;;21.90;54.40;;;;;;5050929;28;20439;-80
2021/11/09 11:11:26;;;;;;;1.90;1.70;;;21.90;54.50;;;;;;5049529;28;20445;-80
2021/11/09 11:13:54;;;;;;;2.30;2.00;;;21.90;54.40;;;;;;5031208;28;20419;-80
2021/11/09 11:16:21;;;;;;;2.37;2.17;;;21.90;54.50;;;;;;5051340;28;20415;-79
2021/11/09 11:18:53;;;;;;;3.77;2.07;;;21.90;54.50;;;;;;5048948;28;20811;-79
2021/11/09 11:21:24;;;;;;;2.27;1.93;;;21.90;54.50;;;;;;5027433;28;20450;-79
2021/11/09 11:23:50;;;;;;;2.30;2.10;;;21.90;54.50;;;;;;5029504;28;20541;-79
2021/11/09 11:26:18;;;;;;;2.37;2.17;;;21.90;54.40;;;;;;5047680;28;20502;-79
2021/11/09 11:28:46;;;;;;;1.90;1.67;;;21.90;54.40;;;;;;5046750;28;20410;-80
2021/11/09 11:31:13;;;;;;;2.50;2.07;;;21.90;54.50;;;;;;5025991;28;20513;-80
2021/11/09 11:33:40;;;;;;;2.27;1.90;;;21.90;54.50;;;;;;5028424;28;20445;-80
2021/11/09 11:36:06;;;;;;;3.30;2.60;;;21.90;54.40;;;;;;5030759;28;20927;-80
2021/11/09 11:38:42;;;;;;;3.10;2.20;;;21.90;54.50;;;;;;5025970;28;20443;-79
2021/11/09 11:41:08;;;;;;;3.57;2.27;;;21.90;54.50;;;;;;5031789;28;20457;-80
2021/11/09 11:43:43;;;;;;;5.50;3.10;;;21.90;54.50;;;;;;5048303;28;20410;-80
2021/11/09 11:46:13;;;;;;;9.27;4.47;;;21.90;54.50;;;;;;5024580;28;20420;-79
2021/11/09 11:49:04;;;;;;;6.47;3.90;;;21.90;54.50;;;;;;5026041;28;20504;-79
2021/11/09 11:51:33;;;;;;;5.30;3.50;;;21.90;54.50;;;;;;5041299;28;20797;-80
2021/11/09 11:53:59;;;;;;;4.73;3.87;;;21.90;54.60;;;;;;5027903;28;20423;-79
2021/11/09 11:56:44;;;;;;;6.57;3.77;;;21.90;54.60;;;;;;5029688;28;20418;-78
2021/11/09 11:59:24;;;;;;;6.27;4.23;;;22.00;54.60;;;;;;5046459;28;20258;-78
2021/11/09 12:01:57;;;;;;;9.13;4.30;;;21.90;54.50;;;;;;5045429;28;20421;-79
2021/11/09 12:07:54;;;;;;;7.40;4.30;;;21.90;54.40;;;;;;5043951;28;20405;-78
2021/11/09 12:10:35;;;;;;;6.07;3.90;;;21.90;54.50;;;;;;5046138;28;20425;-78
2021/11/09 12:13:08;;;;;;;9.60;5.17;;;21.90;54.40;;;;;;5028389;28;20469;-78
2021/11/09 12:15:48;;;;;;;5.10;3.40;;;21.90;54.50;;;;;;5029703;28;20432;-78
2021/11/09 12:18:31;;;;;;;8.03;3.60;;;21.90;54.40;;;;;;5046315;28;20457;-78
2021/11/09 12:21:01;;;;;;;5.10;3.53;;;21.90;54.50;;;;;;5046312;28;20462;-78
2021/11/09 12:23:28;;;;;;;6.00;3.80;;;21.90;54.50;;;;;;5028939;28;20427;-77
2021/11/09 12:25:54;;;;;;;6.83;4.03;;;21.90;54.50;;;;;;5047537;28;20402;-78
2021/11/09 12:28:31;;;;;;;5.07;3.57;;;21.90;54.50;;;;;;5047947;28;20429;-77
2021/11/09 12:30:57;;;;;;;7.07;3.80;;;21.90;54.40;;;;;;5027015;28;20200;-78
2021/11/09 12:33:38;;;;;;;7.70;4.83;;;21.90;54.40;;;;;;5029496;28;20434;-78
2021/11/09 12:36:05;;;;;;;6.90;3.70;;;21.90;54.40;;;;;;5028630;28;20187;-78
2021/11/09 12:38:32;;;;;;;7.33;3.70;;;21.90;54.40;;;;;;5025417;28;20447;-78
2021/11/09 12:41:00;;;;;;;8.53;4.83;;;21.90;54.50;;;;;;5043027;28;20545;-78
2021/11/09 12:43:32;;;;;;;5.10;3.50;;;21.90;54.40;;;;;;5031475;28;20430;-78
2021/11/09 12:46:23;;;;;;;20.03;5.03;;;21.90;54.40;;;;;;5030977;28;20441;-78
2021/11/09 12:49:02;;;;;;;6.00;4.00;;;22.00;54.50;;;;;;5030589;28;20426;-78
2021/11/09 12:51:31;;;;;;;6.03;4.23;;;21.90;54.50;;;;;;5030794;28;20448;-78
2021/11/09 12:54:13;;;;;;;8.40;4.00;;;21.90;54.60;;;;;;5031159;28;21003;-78
2021/11/09 12:56:48;;;;;;;5.10;3.93;;;21.90;54.50;;;;;;5030404;28;20414;-77
2021/11/09 12:59:22;;;;;;;8.03;4.00;;;21.90;54.60;;;;;;5030392;28;20448;-78
2021/11/09 13:10:01;;;;;;;6.60;3.83;;;21.90;54.60;;;;;;5051252;28;20429;-77
2021/11/09 13:12:33;;;;;;;5.57;4.00;;;21.90;54.60;;;;;;5033795;28;20418;-77
2021/11/09 13:15:06;;;;;;;4.90;3.80;;;21.90;54.60;;;;;;5050901;28;20421;-77
2021/11/09 13:17:46;;;;;;;5.07;3.43;;;21.90;54.50;;;;;;5050919;28;20418;-78
2021/11/09 13:23:11;;;;;;;5.83;4.70;;;21.90;54.20;;;;;;5051547;28;20461;-78
2021/11/09 13:25:38;;;;;;;6.73;4.20;;;21.80;54.00;;;;;;5050616;28;20436;-76
2021/11/09 13:28:19;;;;;;;5.50;3.87;;;21.80;53.90;;;;;;5037186;28;20449;-78
2021/11/09 13:30:52;;;;;;;5.37;3.70;;;21.80;53.70;;;;;;5049448;28;20430;-78
2021/11/09 13:33:19;;;;;;;4.80;4.27;;;21.80;53.80;;;;;;5033557;28;20425;-78
2021/11/09 13:35:46;;;;;;;4.23;2.83;;;21.80;53.80;;;;;;5033242;28;20510;-78
2021/11/09 13:38:27;;;;;;;4.77;3.57;;;21.80;53.80;;;;;;5048806;28;20426;-78
2021/11/09 13:40:58;;;;;;;6.10;4.43;;;21.80;53.90;;;;;;5033399;28;20462;-78
2021/11/09 13:43:31;;;;;;;5.17;3.97;;;21.80;54.00;;;;;;5033529;28;20422;-78
2021/11/09 13:46:01;;;;;;;4.20;3.03;;;21.80;54.00;;;;;;5038665;28;20415;-78
2021/11/09 13:48:29;;;;;;;5.57;3.60;;;21.80;54.00;;;;;;5048122;28;20414;-78
2021/11/09 13:51:00;;;;;;;4.20;3.20;;;21.80;54.10;;;;;;5033550;28;20411;-79
2021/11/09 13:53:35;;;;;;;4.80;3.57;;;21.80;54.10;;;;;;5051332;28;20499;-78
2021/11/09 13:56:01;;;;;;;5.33;3.60;;;21.80;54.10;;;;;;5051832;28;20422;-78
2021/11/09 13:58:28;;;;;;;3.77;3.13;;;21.80;54.20;;;;;;5051124;28;20521;-78
2021/11/09 14:01:00;;;;;;;5.07;3.27;;;21.80;54.20;;;;;;5051227;28;20591;-80
2021/11/09 14:03:41;;;;;;;3.80;2.97;;;21.80;54.20;;;;;;5034353;28;20415;-79
2021/11/09 14:17:07;;;;;;;3.27;2.97;;;21.80;54.30;;;;;;5050774;28;20426;-77
2021/11/09 14:19:37;;;;;;;5.53;3.13;;;21.80;54.30;;;;;;5032967;28;20462;-78
2021/11/09 14:22:15;;;;;;;3.63;3.33;;;21.80;54.30;;;;;;5051206;28;20480;-79
2021/11/09 14:24:54;;;;;;;24.43;5.63;;;21.80;54.20;;;;;;5032786;28;20422;-79
2021/11/09 14:27:29;;;;;;;8.90;4.40;;;21.80;54.30;;;;;;5050092;28;20795;-79
2021/11/09 14:29:57;;;;;;;9.23;4.00;;;21.80;54.30;;;;;;5048860;28;20485;-78
2021/11/09 14:32:25;;;;;;;4.07;3.67;;;21.80;54.30;;;;;;5049632;28;20484;-78
2021/11/09 14:35:16;;;;;;;6.57;3.87;;;21.90;54.30;;;;;;5032961;28;20478;-79
2021/11/09 14:40:54;;;;;;;5.37;2.63;;;21.90;54.30;;;;;;5046601;28;20523;-78
2021/11/09 14:43:30;;;;;;;4.50;3.07;;;21.90;54.30;;;;;;5038958;28;20418;-78
2021/11/09 14:46:06;;;;;;;4.23;3.00;;;21.90;54.40;;;;;;5049066;28;20433;-78
2021/11/09 14:51:15;;;;;;;4.80;3.43;;;21.90;54.30;;;;;;5017848;28;20415;-78
2021/11/09 14:56:31;;;;;;;6.23;3.30;;;21.90;54.30;;;;;;5045561;28;20412;-78
2021/11/09 14:58:59;;;;;;;3.33;2.60;;;21.90;54.30;;;;;;5031117;28;20426;-78
2021/11/09 15:01:32;;;;;;;4.93;2.97;;;21.90;54.30;;;;;;5049933;28;20454;-78
2021/11/09 15:04:21;;;;;;;5.67;3.27;;;21.90;54.30;;;;;;5036265;28;20431;-78
2021/11/09 15:07:31;;;;;;;4.70;3.10;;;21.90;54.30;;;;;;5050264;28;20418;-78
2021/11/09 15:26:45;;;;;;;4.10;3.17;;;21.80;54.40;;;;;;5029786;28;20446;-79
2021/11/09 15:29:23;;;;;;;3.70;2.73;;;21.80;54.40;;;;;;5012186;28;20439;-81
2021/11/09 15:32:08;;;;;;;16.27;4.03;;;21.80;54.50;;;;;;5014001;28;20438;-78
2021/11/09 15:35:08;;;;;;;2.90;2.40;;;21.80;54.90;;;;;;5028108;28;20420;-76
2021/11/09 15:37:47;;;;;;;3.07;2.63;;;21.90;54.70;;;;;;5025986;28;20435;-76
2021/11/09 15:40:11;;;;;;;4.47;3.00;;;21.90;54.60;;;;;;5024448;28;20455;-77
2021/11/09 15:42:39;;;;;;;4.90;2.43;;;21.90;54.50;;;;;;5025609;28;20412;-76
2021/11/09 15:45:05;;;;;;;4.60;2.60;;;22.00;55.10;;;;;;5024897;28;20411;-77
2021/11/09 15:47:31;;;;;;;4.63;3.30;;;22.00;54.50;;;;;;5024980;28;20781;-76
2021/11/09 15:49:56;;;;;;;3.80;2.83;;;22.00;54.40;;;;;;5007389;28;20451;-77
2021/11/09 15:52:22;;;;;;;3.00;2.13;;;22.00;54.40;;;;;;5006376;28;20792;-77
2021/11/09 15:54:50;;;;;;;2.67;2.00;;;22.00;54.40;;;;;;5007384;28;20657;-78
2021/11/09 15:57:18;;;;;;;4.10;2.30;;;22.00;54.30;;;;;;5024262;28;20180;-77
2021/11/09 15:59:44;;;;;;;3.47;2.87;;;22.00;54.30;;;;;;5024927;28;20807;-77
2021/11/09 16:02:10;;;;;;;3.67;2.57;;;22.00;54.30;;;;;;5027711;28;20420;-77
2021/11/09 16:04:44;;;;;;;5.27;2.90;;;22.00;54.30;;;;;;5042343;28;20474;-77
2021/11/09 16:07:11;;;;;;;4.73;3.30;;;22.00;54.30;;;;;;5023753;28;20479;-77
2021/11/09 16:09:48;;;;;;;3.40;2.37;;;22.10;54.40;;;;;;5039305;28;20411;-78
2021/11/09 16:12:17;;;;;;;6.27;2.37;;;22.10;54.30;;;;;;5043921;28;20402;-77
2021/11/09 16:14:43;;;;;;;2.57;2.03;;;22.10;54.30;;;;;;5025349;28;20426;-78
2021/11/09 16:17:10;;;;;;;4.27;2.43;;;22.10;54.30;;;;;;5024639;28;20435;-77
2021/11/09 16:19:36;;;;;;;4.40;2.87;;;22.00;54.30;;;;;;5010647;28;20226;-77
2021/11/09 16:22:02;;;;;;;4.50;3.00;;;22.10;54.30;;;;;;5044099;28;20414;-77
2021/11/09 16:24:28;;;;;;;4.00;2.70;;;22.10;54.30;;;;;;5044234;28;20422;-77
2021/11/09 16:26:54;;;;;;;4.10;2.80;;;22.10;54.30;;;;;;5044035;28;20414;-77
2021/11/09 16:32:46;;;;;;;3.60;2.40;;;22.10;54.30;;;;;;5024846;28;20203;-77
2021/11/09 16:37:42;;;;;;;3.03;2.73;;;22.10;54.40;;;;;;5043828;28;20422;-77
2021/11/09 16:40:15;;;;;;;5.00;3.03;;;22.00;54.30;;;;;;5010381;28;20864;-77
2021/11/09 16:42:47;;;;;;;3.37;2.67;;;22.10;54.40;;;;;;5011238;28;20508;-77
2021/11/09 16:45:19;;;;;;;3.63;2.83;;;22.10;54.40;;;;;;5010558;28;20503;-77